Terminal Aerodrome Forecast
Issued by NWS Quad Cities IA IL

Home | Current Version | Previous Version | Text Only | Print | Product List | Glossary On
Versions: 1 2 3 4 5 6 7 8 9 10 11 12 13
000
FTUS43 KDVN 201700
TAFMLI
TAF
KMLI 201730Z 2018/2118 21012G16KT P6SM SCT110 BKN250
     FM210000 19008KT P6SM SCT100 BKN250
     FM211100 22005KT 5SM BR VCSH FEW050 BKN080
     FM211500 25008KT 6SM BR VCSH BKN040=

USA.gov is the U.S. government's official web portal to all federal, state and local government web resources and services.